EDJA

Memmingen Allgau Airport

Memmingen, Germany
METAR EDJA 210650Z VRB03KT 0650 0550E R06/0800V1000U FG OVC003 10/10 Q1016
Observed Flight Rules
May-21 @ 06:50 UTC (20 minutes ago) Instrument Flight Rules
Wind Visibility Clouds Conditions
Variable at 3 knots 644 meters
  • Overcast at 300' AGL
  • Fog
Temperatures Readings
Current 10°C / 50°F
Dewpoint 10°C / 50°F
Humidity 100%
Altimeter 30" Hg
Pressure 1016 hPa
Elevation 633
METAR EDJA 210650Z VRB03KT 0650 0550E R06/0800V1000U FG OVC003 10/10 Q1016
Observed Flight Rules
May-21 @ 06:50 UTC
(20 minutes ago)
LIFR
Wind Visibility
Variable at 3 knots 644 meters
Clouds
  • Overcast at 300' AGL
Conditions
  • Fog
Temperature Dewpoint
10°C / 50°F 10°C / 50°F
Humidity Altimeter Pressure
100% 30" Hg 1016 hPa